Terminal Aerodrome Forecast
Issued by NWS Brownsville, TX

Home | Current Version | Previous Version | Text Only | Print | Product List | Glossary On
Versions: 1 2 3 4 5 6 7 8 9 10 11 12 13 14 15 16 17 18 19 20 21
000
FTUS44 KBRO 281209 AAA
TAFMFE
TAF AMD
KMFE 281209Z 2812/0112 28008KT 2SM BR OVC003
     FM281500 32009KT 2SM BR OVC007
     FM281800 31010KT 4SM BR OVC007
     FM282100 34009KT 4SM HZ BR OVC015
     FM010500 32004KT P6SM OVC015=

USA.gov is the U.S. government's official web portal to all federal, state and local government web resources and services.